Luke Kelly

Olheiro - Sheffield United
8 Jan 2028
Sábado
Processo

Personalidade

Adaptabilidade (1) Ambição (12) Controvérsia (20) Lealdade (6) Pressão (20) Profissionalismo (8) Espírito Esportivo (1) Temperamento (19)

Perfil

Estilo de Treinamento Democrático
Licença Continental C
Determinação 5
Gestão de Pessoas 5
Motivação 13
Disciplina 6
Satisfação no Trabalho
100%
Fadiga
0%
Função Olheiro
Salário 68.7K p/s
Contrato 14.03.2030

Desempenho

Comportamento Bom
Eficácia do Treinamento
33%
Desenvolvimento do Jogador
40%
Prevenção de Lesões
30%
Implementação Tática
45%

Eventos Recentes

Participou de uma reunião de recrutamento agora
Participou de uma reunião de recrutamento agora
Participou de uma reunião de recrutamento agora
Avaliou um jogador 7d atrás
Apresentou um dossiê à direção 7d atrás
Apresentou um dossiê à direção 7d atrás
Apresentou um dossiê à direção 7d atrás
Apresentou um dossiê à direção 7d atrás

Monitorando agora

184
Jogador Clube Status Habilidade Confiança Observado Última observação Último voto
Nicolás Fernández Mercau Alavés Relatório pronto 134 / 134 67% 1 01.01.2028 -
Léo Scienza Southampton Negociando 136 / 136 66% 1 01.01.2028 -
Uche Jaguar Kwara United Ativo 87 / 95 40% 2 31.12.2027 -
Azizbek To'lqinbekov Bunyodkor Ativo 95 / 108 40% 1 31.12.2027 -
Sol Sidibé PSV Ativo 101 / 114 40% 1 31.12.2027 -
Josh Nichols Tranmere Rovers Ativo 119 / 128 40% 6 30.12.2027 -
Ayden Heaven Sheffield Wednesday Ativo 149 / 157 40% 7 30.12.2027 -
Giovanni Leoni Mansfield Town Ativo 134 / 148 40% 6 30.12.2027 -
Inti Borghetto Patronato Ativo 95 / 92 40% 2 29.12.2027 -
Trey Nyoni Doncaster Rovers Ativo 143 / 138 40% 6 29.12.2027 -
Gladson Sulemana Liberty Professionals Ativo 94 / 103 40% 4 29.12.2027 -
Christos Mouzakitis Hull City Ativo 139 / 142 40% 8 28.12.2027 -
Caleb Yirenkyi Coventry City Ativo 147 / 150 40% 11 28.12.2027 -
Bade Aluko Accrington Stanley Ativo 121 / 133 40% 5 27.12.2027 -
Francis Gomez Accrington Stanley Ativo 108 / 118 40% 3 27.12.2027 -
Riquelme Thompson-Jones Shrewsbury Town Ativo 112 / 112 40% 3 23.12.2027 -
Honest Ahanor Atalanta Ativo 137 / 137 40% 7 23.12.2027 -
Jon Esenga IF Elfsborg Ativo 83 / 91 40% 5 22.12.2027 -
Gideon Manaseh Ikorodu City Ativo 90 / 102 40% 5 22.12.2027 -
Luis Otávio Toronto FC Ativo 119 / 128 40% 3 21.12.2027 -
Lucas Bergvall Tottenham Ativo 149 / 149 40% 8 20.12.2027 -
Josh Acheampong Oxford United Ativo 139 / 152 40% 9 20.12.2027 -
Dayann Methalie Everton Ativo 145 / 139 40% 4 18.12.2027 -
Kieran Morgan Queens Park Rangers Ativo 125 / 126 40% 3 17.12.2027 -
Buba Sangaré Elche Ativo 135 / 136 40% 1 14.12.2027 -
Jayden Meghoma Peterborough United Ativo 114 / 126 40% 1 12.12.2027 -
Ayyoub Bouaddi Blackpool Ativo 143 / 155 40% 6 10.12.2027 -
Aiden Hezarkhani Real Salt Lake Ativo 97 / 96 40% 5 09.12.2027 -
Emeka Adiele Utrecht Ativo 103 / 102 40% 7 07.12.2027 -
Lautaro Dufur Rentistas Ativo 97 / 108 40% 5 06.12.2027 -
Mirsad Ali TSC Ativo 101 / 96 40% 5 06.12.2027 -
Agustín Medina Lanús Ativo 123 / 121 40% 3 05.12.2027 -
Rhys Chadwick Gillingham Ativo 96 / 118 40% 1 03.12.2027 -
Tyson Pearce St. Louis CITY SC Ativo 83 / 97 40% 4 01.12.2027 -
Owen Eames Almería Ativo 86 / 96 40% 3 01.12.2027 -
Josh King Derby County Ativo 141 / 154 40% 1 01.12.2027 -
Esquerdinha Oldham Athletic Ativo 111 / 123 40% 7 30.11.2027 -
Kauã Moraes Cruzeiro Ativo 128 / 128 40% 3 28.11.2027 -
Ronan Kpakio Brentford Ativo 122 / 125 40% 2 24.11.2027 -
Joel Ezra Enyimba Ativo 102 / 105 40% 8 20.11.2027 -
Sebastián Ramírez America de Cali Ativo 116 / 109 40% 2 20.11.2027 -
Archie Gray Leicester City Ativo 151 / 152 40% 2 04.11.2027 -
Felipe Faúndez O'Higgins Ativo 95 / 106 40% 4 30.10.2027 -
Harbor Miller LA Galaxy Ativo 94 / 100 40% 2 29.10.2027 -
Kaick FC Dallas Ativo 102 / 108 40% 3 29.10.2027 -
Luka Vušković Tottenham Ativo 143 / 155 40% 7 28.10.2027 -
Facundo Balatti Penarol Ativo 98 / 108 40% 4 28.10.2027 -
Harrison Armstrong Everton Ativo 136 / 138 40% 1 26.10.2027 -
Frankie Westfield Philadelphia Union Ativo 118 / 110 40% 2 25.10.2027 -
Veljko Milosavljević Bournemouth Ativo 132 / 148 40% 2 25.10.2027 -
Jaydee Canvot Liverpool Ativo 137 / 145 40% 6 22.10.2027 -
Habeeb Ogunneye Astra Ativo 101 / 107 40% 3 22.10.2027 -
Felipe Obradovich Gimnasia La Plata Ativo 109 / 120 40% 1 20.10.2027 -
Adrian Gill Atlanta United FC Ativo 84 / 88 40% 6 19.10.2027 -
Geanfranco Rodríguez Defensor Sporting Ativo 98 / 95 40% 3 18.10.2027 -
Snyder Brunell Seattle Sounders Ativo 84 / 92 40% 1 16.10.2027 -
Jorrel Hato Chelsea Ativo 153 / 157 40% 1 14.10.2027 -
Esteban de Lima Tacuarembo Ativo 88 / 96 40% 2 12.10.2027 -
Eric Klein San Jose Earthquakes Ativo 90 / 112 40% 1 24.09.2027 -
Ollie Scarles Chelsea Ativo 134 / 139 40% 1 24.09.2027 -
Stuart Hawkins Chicago Fire Ativo 109 / 118 40% 1 21.09.2027 -
Lewis Miley Birmingham Ativo 142 / 154 40% 3 19.09.2027 -
Matías Argüello Libertad Ativo 97 / 110 40% 1 12.09.2027 -
Yunus Emre Konak Brentford Ativo 136 / 132 40% 1 12.09.2027 -
Fillip Jenssen Riise Stabaek Ativo 106 / 107 40% 1 07.09.2027 -
Noël Aséko Eintracht Frankfurt Ativo 137 / 141 40% 1 23.08.2027 -
Sascha Britschgi Catanzaro Ativo 123 / 127 40% 2 09.08.2027 -
Jobe Bellingham Borussia Dortmund Ativo 149 / 152 40% 2 09.08.2027 -
T-Jay Parfitt Cardiff City Ativo 93 / 102 40% 2 05.07.2027 -
Joe Johnson Luton Town Ativo 107 / 113 40% 1 05.07.2027 -
Jofre Torrents Ajax Ativo 127 / 126 40% 2 29.06.2027 -
Sam Curtis Swindon Town Ativo 97 / 115 40% 3 29.06.2027 -
Mattia Puzone Siracusa Ativo 105 / 107 40% 1 29.06.2027 -
Ryan Battrum Slask Ativo 85 / 90 40% 1 14.06.2027 -
Roberto Alvarado Porto Negociando 139 / 139 66% 1 01.06.2027 -
Adrian Dragusin CFR Cluj Ativo 141 / 142 63% 1 01.06.2027 -
Amar Memić Juventude Negociando 127 / 128 62% 1 01.06.2027 -
Jack Rudoni Coventry City Ativo 133 / 133 40% 4 30.05.2027 -
Harry Clarke Preston Ativo 135 / 135 40% 1 30.05.2027 -
Milan van Ewijk Coventry City Ativo 130 / 137 40% 4 28.05.2027 -
Maeson King Blackpool Ativo 111 / 112 40% 2 28.05.2027 -
Jack McGlynn Stoke City Ativo 125 / 140 40% 3 28.05.2027 -
Riley Owen Wycombe Wanderers Ativo 110 / 109 40% 1 28.05.2027 -
Enzo Le Fée Sunderland Ativo 148 / 143 40% 2 26.05.2027 -
Koki Saito Queens Park Rangers Ativo 119 / 132 40% 1 26.05.2027 -
Gonçalo Oliveira Benfica Ativo 111 / 117 40% 2 25.05.2027 -
Jonathan De Irastorza Levante Ativo 122 / 119 40% 2 25.05.2027 -
Dávid Strelec Middlesbrough Ativo 144 / 139 40% 1 25.05.2027 Mais informações
Ronald Swansea City Ativo 129 / 128 40% 2 22.05.2027 -
Julio Enciso Ipswich Town Ativo 154 / 143 40% 2 21.05.2027 Mais informações
Emile Smith Rowe Fulham Ativo 148 / 155 40% 3 20.05.2027 -
Giorgi Chakvetadze Watford Ativo 138 / 131 40% 2 20.05.2027 -
Alex Scott Bournemouth Ativo 147 / 147 40% 2 19.05.2027 -
Jeon Jin-Woo Sheffield Wednesday Ativo 129 / 129 40% 3 19.05.2027 -
Loum Tchaouna Coventry City Ativo 137 / 146 40% 3 19.05.2027 Observar
Max Johnston Derby County Ativo 133 / 133 40% 2 18.05.2027 -
Isaiah Jones Luton Town Ativo 127 / 128 40% 2 18.05.2027 -
Jay Stansfield Birmingham Ativo 132 / 128 40% 1 18.05.2027 -
Dango Ouattara Brentford Ativo 139 / 146 40% 4 17.05.2027 -
Kasey McAteer Ipswich Town Ativo 132 / 130 40% 1 17.05.2027 -
Tariq Lamptey Queens Park Rangers Ativo 132 / 135 40% 1 15.05.2027 -
Rumarn Burrell Queens Park Rangers Ativo 131 / 125 40% 4 14.05.2027 -
Jason Knight Bristol City Ativo 133 / 127 40% 2 13.05.2027 -
Charles De Ketelaere Atalanta Ativo 165 / 148 40% 1 13.05.2027 -
Oliver Skipp Leicester City Ativo 133 / 134 40% 2 11.05.2027 -
Welington Southampton Ativo 126 / 129 40% 2 10.05.2027 -
Ethan Galbraith Swansea City Ativo 129 / 129 40% 3 10.05.2027 -
Gonzalo Fulham Ativo 145 / 147 40% 1 09.05.2027 -
Jovon Makama Norwich City Ativo 133 / 122 40% 3 06.05.2027 -
Zeidane Inoussa Swansea City Ativo 133 / 122 40% 1 05.05.2027 -
Max Bird Birmingham Ativo 132 / 137 40% 3 04.05.2027 -
Amine Adli Bournemouth Ativo 140 / 141 40% 3 04.05.2027 -
Finn Azaz Southampton Ativo 127 / 127 40% 2 01.05.2027 -
Liam Delap Nottingham Forest Ativo 150 / 145 40% 4 30.04.2027 -
Adrien Truffert Bournemouth Ativo 155 / 156 40% 5 27.04.2027 -
Ryan Sessegnon Fulham Ativo 155 / 148 40% 2 27.04.2027 -
Godwin Oham Warri Wolves Ativo 96 / 86 40% 1 27.04.2027 -
Million Manhoef Stoke City Ativo 129 / 130 40% 1 25.04.2027 -
Isaac Price West Bromwich Albion Ativo 119 / 131 40% 1 24.04.2027 -
Joe Gelhardt Hull City Ativo 133 / 125 40% 1 17.04.2027 -
Kian Best Gijón Ativo 100 / 98 40% 1 16.04.2027 -
Matvey Kislyak Lokomotiv Moscow Ativo 147 / 145 40% 2 14.04.2027 -
Ali Ahmed Norwich City Ativo 118 / 127 40% 2 11.04.2027 -
Enzo Barrenechea Burnley Ativo 146 / 142 40% 3 06.04.2027 -
Mohammed Wakaso Hasaacas Ativo 88 / 102 40% 1 05.04.2027 -
Mikkel Damsgaard Brentford Ativo 150 / 148 40% 3 01.04.2027 -
Helinho Toluca Ativo 122 / 135 40% 2 01.04.2027 -
Carlos Vicente Udinese Ativo 152 / 140 40% 1 28.03.2027 -
Chemsdine Talbi Sunderland Ativo 147 / 147 40% 1 24.03.2027 -
Shea Charles Southampton Ativo 129 / 143 40% 1 21.03.2027 -
Tiago Freitas Benfica Ativo 109 / 113 40% 1 19.03.2027 -
Abraham Paintsil Hasaacas Ativo 92 / 98 40% 1 13.03.2027 -
Chema Andrés Liverpool Ativo 127 / 143 40% 1 02.03.2027 -
Jeffrey Adjei Wa All Stars Ativo 88 / 85 40% 1 26.12.2026 -
Chimobi Igwilo Rangers International Ativo 76 / 95 40% 1 24.12.2026 -
Luke Baartman Bidvest Wits Ativo 115 / 116 40% 3 21.12.2026 -
Tim Iroegbunam Hull City Ativo 137 / 138 40% 2 09.12.2026 -
Tyler Adams Bournemouth Ativo 151 / 147 40% 5 08.12.2026 -
Edoardo Bove Watford Ativo 142 / 133 40% 2 07.12.2026 -
Nicolò Savona Nottingham Forest Ativo 134 / 137 40% 1 07.12.2026 -
Miloš Jovičić Zabbar St. Patrick Ativo 83 / 92 40% 4 04.12.2026 -
Abubakar Garba Nasarawa United Ativo 95 / 92 40% 2 30.11.2026 -
Matías Contrera Northampton Town Ativo 110 / 105 40% 3 30.11.2026 -
Yehor Yarmoliuk Brentford Ativo 136 / 146 40% 3 29.11.2026 -
Anel Ahmedhodžić Burnley Ativo 126 / 136 40% 2 29.11.2026 -
Nicolas Madsen Queens Park Rangers Ativo 120 / 132 40% 1 28.11.2026 -
Diogo Dalot Manchester United Ativo 141 / 147 40% 1 27.11.2026 -
Matías Fernández-Pardo Newcastle United Ativo 127 / 143 40% 2 25.11.2026 -
Bryan Ramírez FC Cincinnati Ativo 134 / 134 40% 1 18.11.2026 -
Luke McNally Bristol City Ativo 118 / 132 40% 1 17.11.2026 -
Alexei Dominguez Pachuca Ativo 95 / 120 40% 1 17.11.2026 -
George Brown Sheffield Wednesday Ativo 109 / 102 40% 1 17.11.2026 -
António Silva Bournemouth Ativo 145 / 144 40% 2 12.11.2026 -
Quinten Timber Crystal Palace Ativo 140 / 151 40% 3 11.11.2026 -
Habib Diarra Sunderland Ativo 143 / 146 40% 2 11.11.2026 -
Aidan Morris Middlesbrough Ativo 130 / 123 40% 1 10.11.2026 -
Conrad Wallem Aalborg Ativo 138 / 137 40% 1 09.11.2026 -
Aaron Hickey Brentford Ativo 139 / 148 40% 1 08.11.2026 -
Calvin Bassey Fulham Ativo 148 / 140 40% 2 05.11.2026 -
Darren Yapi Colorado Rapids Ativo 113 / 113 40% 1 05.11.2026 -
Tyrell Malacia Derby County Ativo 127 / 131 40% 1 03.11.2026 -
Michael Kayode Brentford Ativo 142 / 156 40% 1 03.11.2026 -
Adama Goïta Remo Stars Ativo 94 / 93 40% 1 01.11.2026 -
Will Lankshear Middlesbrough Ativo 129 / 132 40% 3 31.10.2026 -
Brooke Norton-Cuffy Hull City Ativo 143 / 134 40% 1 24.10.2026 -
Aron Sasu AFC Wimbledon Ativo 84 / 92 40% 1 22.10.2026 -
Kimani Stewart-Baynes Colorado Rapids Ativo 109 / 104 40% 1 19.10.2026 -
Jacob Greaves Ipswich Town Ativo 136 / 139 40% 1 18.10.2026 -
Sindre Walle Egeli Nottingham Forest Ativo 127 / 126 40% 1 17.10.2026 -
Neco Williams Nottingham Forest Ativo 137 / 145 40% 2 14.10.2026 -
Pedro Porro Tottenham Ativo 155 / 152 40% 2 13.10.2026 -
Nicolás Azambuja Danubio Ativo 103 / 127 40% 1 13.10.2026 -
Toti Wolverhampton Ativo 137 / 126 40% 1 05.10.2026 -
Freddie Potts Club Brugge Ativo 136 / 130 40% 1 03.10.2026 -
James Garner Everton Ativo 149 / 156 40% 1 26.09.2026 -
Sidiki Chérif Coventry City Ativo 116 / 129 40% 1 26.09.2026 -
Chinedu Onyinjekwu Bayelsa United Ativo 90 / 95 40% 1 20.09.2026 -
Elliot Anderson Manchester City Ativo 155 / 158 40% 1 18.09.2026 -
Rafael Mosquera New York Red Bulls Ativo 100 / 99 40% 1 17.09.2026 -
Chineme Chinonso Ikorodu City Ativo 90 / 96 40% 1 13.09.2026 -
Andy Rojas New York Red Bulls Ativo 109 / 103 40% 1 12.09.2026 -
Diego Gómez Brighton Ativo 152 / 146 40% 1 10.09.2026 -
Murillo Nottingham Forest Ativo 162 / 147 40% 1 07.09.2026 -
Aurèle Amenda Coventry City Ativo 120 / 131 40% 1 07.09.2026 -